Iver Bright — ZDKU4 — position and weather

sailwx.info

Track history (hours):
 
Tides and Currents Weather Stations Pressure Air Temp Water Temp Dewpoint Dewpoint Depression Visibility Wind Speed Wind Dir Waves Ship Positions

Iver Bright

Last reported at 2016-Feb-06 18:33 UTC. Time now 2016-Feb-09 11:52 UTC.
Position N 36°25' E 014°40'.

Length 111 m; draft 5.5 m.

Type: Tanker. MMSI: 236111811.

Date/timePositionNaut miles runAvg speedWind from/ knotsBaromVisibWave heightAir tempDewpointWater temp
2016-Feb-06 18:33N 36°25' E 014°40'1312.9
2016-Feb-06 17:30N 36°29' E 014°24'1313.2
2016-Feb-06 16:33N 36°33' E 014°09'1413.8
2016-Feb-06 15:33N 36°37' E 013°53'  
2016-Feb-02 05:29N 36°51' E 013°26'1212.0
2016-Feb-02 04:31N 36°46' E 013°39'1511.8
2016-Feb-02 03:15N 36°40' E 013°56'812.0
2016-Feb-02 02:33N 36°36' E 014°06'1212.2
2016-Feb-02 01:33N 36°31' E 014°20'1212.5
2016-Feb-02 00:33N 36°26' E 014°34'1211.7
2016-Feb-01 23:33N 36°26' E 014°49'  
2016-Jan-30 11:18N 36°13' E 015°00'1113.8
2016-Jan-30 10:30N 36°04' E 014°53'1212.8
2016-Jan-30 09:33N 35°53' E 014°46'0 0.3
2016-Jan-30 08:31N 35°53' E 014°46'0 0.0
2016-Jan-30 05:22N 35°53' E 014°46'0 0.0
2016-Jan-30 04:31N 35°53' E 014°46'0 0.1
2016-Jan-30 03:31N 35°53' E 014°46'5 4.9
2016-Jan-30 02:33N 35°56' E 014°41'1313.2
2016-Jan-30 01:33N 36°05' E 014°30'1312.3
2016-Jan-30 00:33N 36°11' E 014°16'1414.1
2016-Jan-29 23:33N 36°11' E 013°59'1313.5
2016-Jan-29 22:33N 36°11' E 013°42'1513.3
2016-Jan-29 21:27N 36°11' E 013°24'1314.0
2016-Jan-29 20:33N 36°11' E 013°08'1414.1
2016-Jan-29 19:32N 36°09' E 012°51'105 2.9
2016-Jan-28 07:32N 35°51' E 010°42'  
Track history (hours):
 
Tides and Currents Weather Stations Pressure Air Temp Water Temp Dewpoint Dewpoint Depression Visibility Wind Speed Wind Dir Waves Ship Positions

Iver Bright

Last reported at 2016-Feb-06 18:33 UTC. Time now 2016-Feb-09 11:52 UTC.
Position N 36°25' E 014°40'.

Length 111 m; draft 5.5 m.

Type: Tanker. MMSI: 236111811.

Date/timePositionNaut miles runAvg speedWind from/ knotsBaromVisibWave heightAir tempDewpointWater temp
2016-Feb-06 18:33N 36°25' E 014°40'1312.9
2016-Feb-06 17:30N 36°29' E 014°24'1313.2
2016-Feb-06 16:33N 36°33' E 014°09'1413.8
2016-Feb-06 15:33N 36°37' E 013°53'  
2016-Feb-02 05:29N 36°51' E 013°26'1212.0
2016-Feb-02 04:31N 36°46' E 013°39'1511.8
2016-Feb-02 03:15N 36°40' E 013°56'812.0
2016-Feb-02 02:33N 36°36' E 014°06'1212.2
2016-Feb-02 01:33N 36°31' E 014°20'1212.5
2016-Feb-02 00:33N 36°26' E 014°34'1211.7
2016-Feb-01 23:33N 36°26' E 014°49'  
2016-Jan-30 11:18N 36°13' E 015°00'1113.8
2016-Jan-30 10:30N 36°04' E 014°53'1212.8
2016-Jan-30 09:33N 35°53' E 014°46'0 0.3
2016-Jan-30 08:31N 35°53' E 014°46'0 0.0
2016-Jan-30 05:22N 35°53' E 014°46'0 0.0
2016-Jan-30 04:31N 35°53' E 014°46'0 0.1
2016-Jan-30 03:31N 35°53' E 014°46'5 4.9
2016-Jan-30 02:33N 35°56' E 014°41'1313.2
2016-Jan-30 01:33N 36°05' E 014°30'1312.3
2016-Jan-30 00:33N 36°11' E 014°16'1414.1
2016-Jan-29 23:33N 36°11' E 013°59'1313.5
2016-Jan-29 22:33N 36°11' E 013°42'1513.3
2016-Jan-29 21:27N 36°11' E 013°24'1314.0
2016-Jan-29 20:33N 36°11' E 013°08'1414.1
2016-Jan-29 19:32N 36°09' E 012°51'105 2.9
2016-Jan-28 07:32N 35°51' E 010°42'  

Dump ship's entire track history